Time;durP1;ratioP1;P1;durP2;ratioP2;P2;SDS_P1;SDS_P2;PMS_P1;PMS_P2;Temp;Humidity;BMP_temperature;BMP_pressure;BME280_temperature;BME280_humidity;BME280_pressure;Samples;Min_cycle;Max_cycle;Signal;HPM_P1;HPM_P2
2022/02/07 00:00:15;;;;;;;28.13;11.05;;;;;;;;;;5013394;28;20042;-68
2022/02/07 00:05:30;;;;;;;26.50;10.45;;;;;;;;;;5013471;28;20045;-71
2022/02/07 00:07:58;;;;;;;19.55;11.50;;;;;;;;;;5013312;28;20038;-71
2022/02/07 00:10:29;;;;;;;21.38;10.45;;;;;;;;;;5013305;28;20050;-72
2022/02/07 00:12:56;;;;;;;17.98;9.68;;;;;;;;;;5013223;28;20117;-70
2022/02/07 00:15:24;;;;;;;22.08;10.85;;;;;;;;;;5013478;28;20080;-68
2022/02/07 00:17:51;;;;;;;20.70;9.68;;;;;;;;;;4995994;28;20042;-70
2022/02/07 00:20:21;;;;;;;20.05;10.50;;;;;;;;;;5013179;28;20129;-68
2022/02/07 00:22:50;;;;;;;18.50;8.27;;;;;;;;;;5012819;28;20046;-72
2022/02/07 00:25:18;;;;;;;15.32;8.00;;;;;;;;;;5013292;28;20134;-71
2022/02/07 00:27:45;;;;;;;21.73;8.23;;;;;;;;;;5013263;28;20058;-70
2022/02/07 00:30:14;;;;;;;16.95;7.80;;;;;;;;;;5013088;28;20062;-68
2022/02/07 00:32:42;;;;;;;15.25;7.70;;;;;;;;;;5013141;28;20042;-72
2022/02/07 00:35:14;;;;;;;15.50;7.50;;;;;;;;;;5012868;28;20110;-71
2022/02/07 00:37:49;;;;;;;17.48;8.18;;;;;;;;;;5013092;28;20038;-72
2022/02/07 00:45:40;;;;;;;18.88;8.70;;;;;;;;;;4995569;28;20046;-71
2022/02/07 00:48:09;;;;;;;13.70;8.75;;;;;;;;;;4998049;28;20046;-71
2022/02/07 00:50:40;;;;;;;20.33;9.10;;;;;;;;;;5013117;28;20045;-72
2022/02/07 00:53:13;;;;;;;21.83;9.57;;;;;;;;;;4979529;28;20054;-71
2022/02/07 00:55:46;;;;;;;18.20;9.00;;;;;;;;;;4995574;28;20088;-71
2022/02/07 00:58:13;;;;;;;15.90;9.63;;;;;;;;;;4995790;28;20045;-72
2022/02/07 01:00:41;;;;;;;22.15;9.35;;;;;;;;;;5012831;28;20054;-71
2022/02/07 01:03:10;;;;;;;14.60;9.18;;;;;;;;;;4983102;28;20074;-68
2022/02/07 01:05:40;;;;;;;15.45;9.05;;;;;;;;;;4991780;28;20093;-70
2022/02/07 01:08:20;;;;;;;15.27;8.55;;;;;;;;;;4977015;28;20449;-68
2022/02/07 01:13:58;;;;;;;18.98;7.82;;;;;;;;;;4979430;28;20061;-72
2022/02/07 01:55:17;;;;;;;17.75;8.15;;;;;;;;;;4966002;28;20039;-71
2022/02/07 01:57:48;;;;;;;18.77;8.70;;;;;;;;;;4959366;28;20477;-70
2022/02/07 02:00:22;;;;;;;18.13;8.88;;;;;;;;;;4975242;28;20050;-68
2022/02/07 02:02:53;;;;;;;18.23;9.10;;;;;;;;;;4983592;28;20058;-72
2022/02/07 02:05:36;;;;;;;17.15;9.73;;;;;;;;;;4978701;28;20042;-71
2022/02/07 02:08:09;;;;;;;20.15;9.70;;;;;;;;;;4978763;28;20076;-71
2022/02/07 02:10:42;;;;;;;21.85;9.63;;;;;;;;;;4978577;28;20077;-72
2022/02/07 02:13:28;;;;;;;15.02;9.30;;;;;;;;;;4963183;28;20104;-68
2022/02/07 02:35:23;;;;;;;21.38;9.68;;;;;;;;;;4995581;28;20046;-72
2022/02/07 02:37:56;;;;;;;19.10;10.50;;;;;;;;;;4978657;28;20078;-71
2022/02/07 02:45:44;;;;;;;16.20;9.50;;;;;;;;;;4977928;28;20042;-72
2022/02/07 02:48:29;;;;;;;19.38;10.05;;;;;;;;;;4963524;28;20046;-72
2022/02/07 02:51:06;;;;;;;20.35;10.73;;;;;;;;;;4977807;28;20133;-71
2022/02/07 02:53:35;;;;;;;22.25;10.90;;;;;;;;;;4977702;28;20081;-71
2022/02/07 02:56:03;;;;;;;28.17;11.05;;;;;;;;;;4977628;28;20042;-68
2022/02/07 02:58:46;;;;;;;25.00;11.07;;;;;;;;;;4978035;28;20494;-70
2022/02/07 03:01:13;;;;;;;27.70;11.02;;;;;;;;;;4994651;28;20129;-70
2022/02/07 03:03:52;;;;;;;22.63;10.15;;;;;;;;;;4977099;28;20375;-71
2022/02/07 03:06:24;;;;;;;17.13;9.38;;;;;;;;;;4977365;28;20129;-70
2022/02/07 03:08:51;;;;;;;20.38;9.57;;;;;;;;;;4994978;28;20474;-71
2022/02/07 03:11:23;;;;;;;15.00;8.30;;;;;;;;;;4977458;28;20066;-70
2022/02/07 03:13:57;;;;;;;23.75;8.98;;;;;;;;;;4977050;28;20137;-68
2022/02/07 03:16:38;;;;;;;17.02;8.27;;;;;;;;;;4977465;28;20066;-70
2022/02/07 03:19:10;;;;;;;14.55;7.90;;;;;;;;;;4977380;28;20066;-71
2022/02/07 03:21:38;;;;;;;15.15;7.35;;;;;;;;;;4977299;28;20050;-68
2022/02/07 03:24:06;;;;;;;18.13;7.47;;;;;;;;;;4994208;28;20052;-72
2022/02/07 03:26:40;;;;;;;13.35;6.93;;;;;;;;;;4977085;28;20057;-71
2022/02/07 03:29:10;;;;;;;17.70;6.90;;;;;;;;;;4994436;28;20387;-72
2022/02/07 03:31:43;;;;;;;13.55;7.45;;;;;;;;;;4977119;28;20053;-70
2022/02/07 03:34:14;;;;;;;16.92;7.30;;;;;;;;;;4976323;28;20054;-70
2022/02/07 03:36:45;;;;;;;14.60;7.25;;;;;;;;;;4961331;28;20042;-71
2022/02/07 03:39:14;;;;;;;14.45;7.07;;;;;;;;;;4988760;28;20053;-72
2022/02/07 03:41:41;;;;;;;15.18;6.40;;;;;;;;;;5014374;28;20396;-68
2022/02/07 03:44:09;;;;;;;14.00;7.20;;;;;;;;;;5013969;28;20132;-68
2022/02/07 03:46:36;;;;;;;13.18;6.80;;;;;;;;;;4996361;28;20042;-71
2022/02/07 03:49:05;;;;;;;14.93;6.68;;;;;;;;;;4995790;28;20045;-71
2022/02/07 03:51:35;;;;;;;15.05;7.05;;;;;;;;;;4996469;28;20050;-71
2022/02/07 03:54:03;;;;;;;10.07;6.38;;;;;;;;;;4996270;28;20070;-71
2022/02/07 03:56:31;;;;;;;14.10;6.45;;;;;;;;;;4996128;28;20580;-72
2022/02/07 03:58:59;;;;;;;11.85;6.32;;;;;;;;;;4996299;28;20046;-71
2022/02/07 04:01:28;;;;;;;8.75;6.05;;;;;;;;;;4996136;28;20042;-68
2022/02/07 04:03:56;;;;;;;12.68;5.47;;;;;;;;;;5013394;28;20100;-70
2022/02/07 04:06:25;;;;;;;15.13;6.10;;;;;;;;;;4995880;28;20041;-71
2022/02/07 04:09:21;;;;;;;;;;;;;;;;;;5000145;28;20137;-70
2022/02/07 04:11:57;;;;;;;15.63;5.88;;;;;;;;;;4995524;28;20365;-71
2022/02/07 04:14:27;;;;;;;12.40;6.10;;;;;;;;;;4996379;28;20140;-72
2022/02/07 04:17:19;;;;;;;12.32;5.93;;;;;;;;;;4996030;28;20049;-72
2022/02/07 04:19:47;;;;;;;12.43;7.03;;;;;;;;;;5013937;28;20052;-71
2022/02/07 04:22:15;;;;;;;12.90;6.70;;;;;;;;;;4995618;28;20417;-70
2022/02/07 04:25:01;;;;;;;16.92;7.15;;;;;;;;;;4995698;28;20046;-70
2022/02/07 04:27:36;;;;;;;16.83;6.55;;;;;;;;;;4995787;28;20453;-72
2022/02/07 04:30:06;;;;;;;11.45;6.15;;;;;;;;;;4979860;28;20126;-70
2022/02/07 04:32:38;;;;;;;9.65;5.68;;;;;;;;;;4995993;28;20042;-71
2022/02/07 04:35:06;;;;;;;9.68;6.40;;;;;;;;;;4995392;28;20058;-68
2022/02/07 04:37:34;;;;;;;11.57;6.47;;;;;;;;;;4996115;28;20069;-68
2022/02/07 04:40:02;;;;;;;15.10;6.72;;;;;;;;;;4996073;28;20050;-70
2022/02/07 04:42:34;;;;;;;14.90;7.18;;;;;;;;;;4995458;28;20045;-71
2022/02/07 05:01:24;;;;;;;11.40;5.45;;;;;;;;;;4999331;28;20053;-70
2022/02/07 05:03:48;;;;;;;11.35;5.68;;;;;;;;;;4998877;28;20120;-72
2022/02/07 05:14:49;;;;;;;10.98;5.88;;;;;;;;;;4998934;28;20107;-72
2022/02/07 05:17:20;;;;;;;11.65;6.13;;;;;;;;;;4998789;28;20137;-71
2022/02/07 05:20:02;;;;;;;12.25;5.80;;;;;;;;;;4999272;28;20060;-68
2022/02/07 05:22:49;;;;;;;11.18;5.63;;;;;;;;;;5005639;28;20111;-70
2022/02/07 05:25:39;;;;;;;9.85;4.75;;;;;;;;;;4998631;28;20053;-68
2022/02/07 05:28:17;;;;;;;8.23;4.63;;;;;;;;;;4998731;28;20528;-70
2022/02/07 05:31:05;;;;;;;13.65;5.30;;;;;;;;;;4998736;28;20501;-72
2022/02/07 05:33:45;;;;;;;11.77;6.55;;;;;;;;;;5016798;28;20038;-67
2022/02/07 05:36:25;;;;;;;11.85;5.50;;;;;;;;;;5015909;28;20061;-71
2022/02/07 05:39:21;;;;;;;13.77;8.00;;;;;;;;;;4998700;28;20042;-70
2022/02/07 05:42:03;;;;;;;16.55;5.43;;;;;;;;;;4998583;28;20041;-72
2022/02/07 05:44:47;;;;;;;10.35;5.65;;;;;;;;;;4998182;28;20042;-71
2022/02/07 05:47:35;;;;;;;11.82;5.60;;;;;;;;;;4996450;28;20057;-70
2022/02/07 05:50:15;;;;;;;11.48;5.38;;;;;;;;;;4977242;28;20047;-72
2022/02/07 05:53:12;;;;;;;13.88;5.90;;;;;;;;;;4972307;28;20063;-71
2022/02/07 05:55:54;;;;;;;10.75;5.18;;;;;;;;;;4965296;28;20410;-69
2022/02/07 05:58:35;;;;;;;12.63;5.60;;;;;;;;;;4964593;28;20046;-71
2022/02/07 06:01:23;;;;;;;13.63;4.97;;;;;;;;;;4994582;28;20058;-69
2022/02/07 06:03:53;;;;;;;9.10;4.68;;;;;;;;;;4994626;28;20541;-67
2022/02/07 06:06:20;;;;;;;9.57;4.43;;;;;;;;;;5015605;28;20121;-70
2022/02/07 06:08:49;;;;;;;9.98;4.07;;;;;;;;;;4998150;28;20046;-67
2022/02/07 06:11:20;;;;;;;11.90;5.20;;;;;;;;;;4997714;28;20096;-70
2022/02/07 06:13:52;;;;;;;15.25;6.70;;;;;;;;;;4997893;28;20049;-68
2022/02/07 06:16:20;;;;;;;16.13;8.00;;;;;;;;;;5015851;28;20046;-70
2022/02/07 06:18:54;;;;;;;16.08;6.80;;;;;;;;;;4997350;28;20505;-71
2022/02/07 06:21:32;;;;;;;15.55;5.43;;;;;;;;;;4997491;28;20050;-68
2022/02/07 06:24:02;;;;;;;12.05;4.70;;;;;;;;;;4997398;28;20066;-68
2022/02/07 06:26:30;;;;;;;12.60;5.20;;;;;;;;;;4996138;28;20052;-70
2022/02/07 06:29:00;;;;;;;11.68;5.00;;;;;;;;;;4993969;28;20038;-71
2022/02/07 06:31:28;;;;;;;9.02;4.82;;;;;;;;;;4995781;28;20046;-71
2022/02/07 06:33:58;;;;;;;7.53;4.00;;;;;;;;;;4996719;28;20042;-70
2022/02/07 06:36:27;;;;;;;8.82;3.85;;;;;;;;;;5014125;28;20067;-69
2022/02/07 06:38:55;;;;;;;7.63;3.50;;;;;;;;;;5014747;28;20049;-68
2022/02/07 06:41:24;;;;;;;9.43;3.75;;;;;;;;;;4997311;28;20092;-70
2022/02/07 06:43:55;;;;;;;7.05;2.92;;;;;;;;;;4997172;28;20038;-69
2022/02/07 06:46:23;;;;;;;15.52;2.70;;;;;;;;;;4996846;28;20050;-70
2022/02/07 06:48:51;;;;;;;8.25;3.33;;;;;;;;;;4995986;28;20509;-70
2022/02/07 06:51:19;;;;;;;6.00;2.60;;;;;;;;;;4996161;28;20132;-70
2022/02/07 06:53:51;;;;;;;8.63;2.90;;;;;;;;;;4997298;28;20129;-70
2022/02/07 06:56:21;;;;;;;6.53;2.85;;;;;;;;;;4996905;28;20056;-71
2022/02/07 06:58:51;;;;;;;7.75;2.45;;;;;;;;;;4994955;28;20052;-68
2022/02/07 07:01:23;;;;;;;10.88;3.47;;;;;;;;;;4971788;28;20113;-69
2022/02/07 07:03:50;;;;;;;9.82;3.35;;;;;;;;;;4985973;28;20101;-69
2022/02/07 07:06:18;;;;;;;16.55;3.25;;;;;;;;;;4988455;28;20049;-69
2022/02/07 07:08:53;;;;;;;6.25;3.20;;;;;;;;;;4996367;28;20398;-68
2022/02/07 07:11:25;;;;;;;7.57;3.08;;;;;;;;;;4990040;28;20050;-72
2022/02/07 07:14:11;;;;;;;7.57;2.72;;;;;;;;;;4977452;28;20046;-73
2022/02/07 07:16:50;;;;;;;8.07;3.35;;;;;;;;;;4961331;28;20049;-72
2022/02/07 07:19:24;;;;;;;7.88;3.40;;;;;;;;;;4977446;28;20053;-69
2022/02/07 07:21:52;;;;;;;7.97;3.22;;;;;;;;;;4977037;28;20398;-72
2022/02/07 07:24:20;;;;;;;8.18;3.30;;;;;;;;;;4960804;28;20050;-72
2022/02/07 07:26:48;;;;;;;6.57;3.10;;;;;;;;;;4994639;28;20039;-72
2022/02/07 07:29:24;;;;;;;10.80;4.18;;;;;;;;;;4976957;28;20084;-72
2022/02/07 07:31:59;;;;;;;11.85;4.78;;;;;;;;;;4976458;28;20425;-72
2022/02/07 07:34:30;;;;;;;9.50;3.42;;;;;;;;;;4977115;28;20053;-72
2022/02/07 07:37:03;;;;;;;10.10;4.13;;;;;;;;;;4993995;28;20477;-70
2022/02/07 07:39:36;;;;;;;8.32;3.70;;;;;;;;;;4961116;28;20465;-71
2022/02/07 07:42:04;;;;;;;8.25;4.13;;;;;;;;;;4960874;28;20481;-71
2022/02/07 07:44:58;;;;;;;10.93;5.45;;;;;;;;;;4969428;28;20061;-73
2022/02/07 07:47:46;;;;;;;12.13;5.65;;;;;;;;;;4994040;28;20050;-73
2022/02/07 07:50:22;;;;;;;12.27;4.43;;;;;;;;;;4977062;28;20046;-72
2022/02/07 07:53:11;;;;;;;11.98;3.70;;;;;;;;;;4993922;28;20046;-73
2022/02/07 08:04:35;;;;;;;11.55;4.85;;;;;;;;;;4933699;29;20052;-73
2022/02/07 08:07:40;;;;;;;9.18;3.47;;;;;;;;;;4918190;29;20048;-72
2022/02/07 08:12:55;;;;;;;12.90;4.00;;;;;;;;;;4933612;29;20412;-73
2022/02/07 08:15:23;;;;;;;8.05;2.30;;;;;;;;;;4933361;29;20052;-72
2022/02/07 08:17:50;;;;;;;8.10;2.75;;;;;;;;;;4933837;29;20047;-73
2022/02/07 08:20:18;;;;;;;13.20;2.60;;;;;;;;;;4933078;29;20058;-70
2022/02/07 08:22:45;;;;;;;6.18;2.53;;;;;;;;;;4917796;29;20085;-69
2022/02/07 08:25:13;;;;;;;8.02;2.60;;;;;;;;;;4933305;29;20536;-73
2022/02/07 08:27:41;;;;;;;7.78;2.60;;;;;;;;;;4917758;29;20047;-73
2022/02/07 08:30:09;;;;;;;7.45;2.65;;;;;;;;;;4933452;29;20056;-73
2022/02/07 08:32:37;;;;;;;5.60;2.30;;;;;;;;;;4933855;29;20048;-73
2022/02/07 08:35:04;;;;;;;7.35;2.15;;;;;;;;;;4933725;29;20054;-73
2022/02/07 08:37:32;;;;;;;6.30;2.65;;;;;;;;;;4936224;28;20571;-73
2022/02/07 08:39:59;;;;;;;8.07;3.00;;;;;;;;;;4974312;28;20047;-73
2022/02/07 08:42:27;;;;;;;11.50;2.60;;;;;;;;;;4974025;28;20474;-73
2022/02/07 08:44:54;;;;;;;6.70;2.63;;;;;;;;;;4974023;28;20042;-69
2022/02/07 08:47:23;;;;;;;9.93;2.40;;;;;;;;;;4940811;28;20043;-73
2022/02/07 08:49:50;;;;;;;10.23;2.50;;;;;;;;;;4973836;28;20117;-72
2022/02/07 08:52:18;;;;;;;4.60;2.08;;;;;;;;;;4974117;28;20451;-73
2022/02/07 08:54:47;;;;;;;7.47;2.15;;;;;;;;;;4974251;28;20039;-72
2022/02/07 08:59:59;;;;;;;6.15;2.45;;;;;;;;;;4973633;28;20047;-73
2022/02/07 09:07:36;;;;;;;6.57;2.28;;;;;;;;;;4975984;28;20047;-71
2022/02/07 09:10:06;;;;;;;;;;;;;;;;;;4993543;28;20467;-70
2022/02/07 09:12:46;;;;;;;9.27;2.17;;;;;;;;;;4992981;28;19926;-73
2022/02/07 09:15:30;;;;;;;12.55;2.20;;;;;;;;;;4976134;28;20046;-69
2022/02/07 09:18:05;;;;;;;11.48;2.80;;;;;;;;;;4992952;28;20181;-69
2022/02/07 09:20:35;;;;;;;9.80;2.45;;;;;;;;;;4975925;28;20050;-72
2022/02/07 09:23:03;;;;;;;12.25;4.90;;;;;;;;;;4975897;28;20062;-70
2022/02/07 09:25:30;;;;;;;6.30;2.13;;;;;;;;;;4992834;28;20081;-72
2022/02/07 09:27:58;;;;;;;11.15;2.72;;;;;;;;;;4992668;28;20042;-70
2022/02/07 09:30:27;;;;;;;10.68;2.80;;;;;;;;;;4994142;28;20046;-73
2022/02/07 09:32:54;;;;;;;9.75;2.92;;;;;;;;;;4996747;28;20040;-69
2022/02/07 09:35:23;;;;;;;6.45;2.30;;;;;;;;;;4997110;28;20431;-73
2022/02/07 09:37:52;;;;;;;13.02;2.80;;;;;;;;;;4996644;28;20367;-73
2022/02/07 09:40:21;;;;;;;7.68;2.03;;;;;;;;;;4996364;28;20046;-73
2022/02/07 09:42:55;;;;;;;10.95;2.28;;;;;;;;;;4978971;28;20046;-69
2022/02/07 09:45:37;;;;;;;8.68;2.58;;;;;;;;;;4996179;28;20045;-73
2022/02/07 09:48:11;;;;;;;10.10;2.55;;;;;;;;;;4996363;28;20387;-69
2022/02/07 09:50:39;;;;;;;7.50;2.00;;;;;;;;;;4996466;28;20042;-72
2022/02/07 09:53:07;;;;;;;8.85;2.25;;;;;;;;;;4979288;28;20466;-72
2022/02/07 09:55:35;;;;;;;10.63;2.53;;;;;;;;;;4996633;28;20119;-69
2022/02/07 09:58:02;;;;;;;12.95;2.30;;;;;;;;;;4996441;28;20034;-73
2022/02/07 10:00:33;;;;;;;8.13;2.25;;;;;;;;;;4995669;28;20038;-73
2022/02/07 10:05:49;;;;;;;9.48;2.42;;;;;;;;;;5055268;28;20033;-72
2022/02/07 10:19:06;;;;;;;5.82;1.95;;;;;;;;;;5055235;28;20450;-71
2022/02/07 10:38:51;;;;;;;7.65;2.20;;;;;;;;;;5036535;28;20049;-73
2022/02/07 10:47:09;;;;;;;5.05;2.20;;;;;;;;;;5054708;28;20045;-70
2022/02/07 10:49:38;;;;;;;5.50;1.75;;;;;;;;;;5054122;28;20466;-71
2022/02/07 10:52:06;;;;;;;8.25;2.47;;;;;;;;;;5054249;28;20037;-71
2022/02/07 10:54:33;;;;;;;6.25;2.00;;;;;;;;;;5054479;28;20037;-71
2022/02/07 10:57:07;;;;;;;5.22;1.83;;;;;;;;;;5037157;28;20041;-70
2022/02/07 10:59:37;;;;;;;5.88;1.95;;;;;;;;;;5054196;28;20045;-70
2022/02/07 11:05:04;;;;;;;8.23;2.40;;;;;;;;;;5054150;28;20045;-71
2022/02/07 11:07:32;;;;;;;11.38;2.28;;;;;;;;;;5054027;28;20115;-71
2022/02/07 11:10:21;;;;;;;6.45;2.15;;;;;;;;;;5053688;28;20036;-70
2022/02/07 11:15:48;;;;;;;7.70;2.15;;;;;;;;;;5053537;28;20049;-72
2022/02/07 11:18:34;;;;;;;7.28;2.00;;;;;;;;;;5036486;28;20095;-73
2022/02/07 11:21:21;;;;;;;6.80;2.42;;;;;;;;;;5053688;28;20056;-71
2022/02/07 11:24:18;;;;;;;7.88;2.08;;;;;;;;;;5053348;28;20041;-73
2022/02/07 11:26:50;;;;;;;6.82;2.08;;;;;;;;;;5031380;28;20057;-73
2022/02/07 11:29:38;;;;;;;15.43;2.10;;;;;;;;;;5053430;28;20076;-71
2022/02/07 11:32:08;;;;;;;5.82;1.73;;;;;;;;;;5053486;28;20088;-71
2022/02/07 11:34:43;;;;;;;8.70;2.53;;;;;;;;;;5053284;28;20033;-71
2022/02/07 11:37:18;;;;;;;6.57;1.98;;;;;;;;;;5053351;28;20072;-71
2022/02/07 11:39:48;;;;;;;10.27;2.05;;;;;;;;;;5053485;28;20037;-71
2022/02/07 11:42:31;;;;;;;11.10;2.03;;;;;;;;;;5053374;28;20041;-71
2022/02/07 11:45:01;;;;;;;10.25;2.40;;;;;;;;;;5053669;28;20037;-72
2022/02/07 11:47:31;;;;;;;7.70;2.05;;;;;;;;;;5052818;28;20420;-72
2022/02/07 11:50:02;;;;;;;8.27;2.20;;;;;;;;;;5034838;28;20045;-74
2022/02/07 11:52:45;;;;;;;11.82;2.67;;;;;;;;;;5053242;28;20461;-71
2022/02/07 11:55:23;;;;;;;;;;;;;;;;;;5052903;28;20124;-72
2022/02/07 11:58:07;;;;;;;18.25;2.60;;;;;;;;;;5053175;28;20299;-72
2022/02/07 12:00:44;;;;;;;10.63;2.70;;;;;;;;;;5052737;28;20490;-72
2022/02/07 12:03:13;;;;;;;7.90;2.20;;;;;;;;;;5052146;28;20124;-72
2022/02/07 12:05:48;;;;;;;7.70;2.10;;;;;;;;;;5018386;28;22357;-72
2022/02/07 12:08:18;;;;;;;13.07;2.13;;;;;;;;;;5052892;28;20527;-74
2022/02/07 12:10:49;;;;;;;7.05;2.33;;;;;;;;;;5052536;28;20065;-71
2022/02/07 12:13:46;;;;;;;9.55;2.33;;;;;;;;;;5052319;28;20072;-74
2022/02/07 12:16:19;;;;;;;7.63;2.38;;;;;;;;;;5023513;28;20464;-71
2022/02/07 12:18:47;;;;;;;6.30;1.92;;;;;;;;;;5053010;28;20063;-73
2022/02/07 12:21:25;;;;;;;12.95;2.53;;;;;;;;;;5052818;28;20051;-72
2022/02/07 12:23:57;;;;;;;6.70;2.35;;;;;;;;;;5052876;28;20120;-72
2022/02/07 12:26:26;;;;;;;11.23;2.33;;;;;;;;;;5052901;28;20040;-72
2022/02/07 12:28:59;;;;;;;4.70;2.20;;;;;;;;;;5052855;28;20045;-72
2022/02/07 12:31:27;;;;;;;10.07;2.38;;;;;;;;;;5052806;28;20037;-72
2022/02/07 12:34:00;;;;;;;11.00;2.30;;;;;;;;;;5052564;28;20033;-72
2022/02/07 12:36:33;;;;;;;10.32;2.72;;;;;;;;;;5034691;28;20070;-72
2022/02/07 12:39:01;;;;;;;5.55;2.00;;;;;;;;;;5052833;28;20044;-71
2022/02/07 12:41:31;;;;;;;8.60;2.22;;;;;;;;;;5029903;28;20131;-72
2022/02/07 12:44:00;;;;;;;12.85;2.53;;;;;;;;;;5043297;28;20099;-72
2022/02/07 12:46:30;;;;;;;8.45;2.40;;;;;;;;;;5042025;28;20033;-71
2022/02/07 12:49:11;;;;;;;8.38;2.30;;;;;;;;;;5040976;28;20041;-74
2022/02/07 12:51:46;;;;;;;10.98;2.35;;;;;;;;;;5026258;28;20030;-72
2022/02/07 12:54:15;;;;;;;8.50;2.63;;;;;;;;;;5042611;28;20038;-71
2022/02/07 12:56:45;;;;;;;11.23;2.28;;;;;;;;;;5040990;28;20045;-71
2022/02/07 12:59:17;;;;;;;7.53;2.15;;;;;;;;;;5042085;28;20049;-74
2022/02/07 13:01:46;;;;;;;8.07;2.50;;;;;;;;;;5042832;28;20045;-71
2022/02/07 13:04:18;;;;;;;7.50;2.50;;;;;;;;;;5024618;28;20411;-71
2022/02/07 13:06:52;;;;;;;8.73;2.35;;;;;;;;;;5044566;28;20049;-74
2022/02/07 13:09:26;;;;;;;8.50;2.58;;;;;;;;;;5044839;28;20041;-74
2022/02/07 13:14:42;;;;;;;9.98;2.53;;;;;;;;;;5045951;28;19927;-73
2022/02/07 13:17:12;;;;;;;9.55;2.75;;;;;;;;;;5041773;28;20152;-73
2022/02/07 13:19:41;;;;;;;12.85;2.38;;;;;;;;;;5045169;28;20044;-71
2022/02/07 13:22:09;;;;;;;6.07;1.90;;;;;;;;;;5049431;28;20051;-72
2022/02/07 13:24:39;;;;;;;7.05;1.85;;;;;;;;;;5044985;28;20049;-72
2022/02/07 13:27:12;;;;;;;9.27;2.05;;;;;;;;;;5047289;28;20049;-72
2022/02/07 13:29:45;;;;;;;9.20;2.47;;;;;;;;;;5045233;28;20044;-72
2022/02/07 13:32:13;;;;;;;4.68;1.83;;;;;;;;;;5045070;28;20040;-71
2022/02/07 13:34:44;;;;;;;7.57;2.15;;;;;;;;;;5027364;28;20083;-72
2022/02/07 13:37:14;;;;;;;12.05;2.25;;;;;;;;;;5028139;28;20141;-71
2022/02/07 13:39:50;;;;;;;11.13;3.42;;;;;;;;;;5042976;28;20048;-72
2022/02/07 13:42:18;;;;;;;8.88;2.10;;;;;;;;;;5048343;28;20124;-72
2022/02/07 13:44:46;;;;;;;8.73;2.40;;;;;;;;;;5049117;28;20041;-72
2022/02/07 13:47:14;;;;;;;10.00;2.22;;;;;;;;;;5042364;28;20041;-71
2022/02/07 13:49:58;;;;;;;6.82;2.33;;;;;;;;;;5045711;28;20037;-72
2022/02/07 13:52:31;;;;;;;9.90;2.20;;;;;;;;;;5046136;28;20112;-74
2022/02/07 13:55:09;;;;;;;10.48;2.20;;;;;;;;;;5030850;28;20045;-73
2022/02/07 13:57:49;;;;;;;9.35;2.53;;;;;;;;;;5044673;28;20045;-72
2022/02/07 14:00:20;;;;;;;8.50;2.45;;;;;;;;;;5029794;28;20094;-72
2022/02/07 14:03:02;;;;;;;12.40;2.40;;;;;;;;;;5046227;28;20503;-74
2022/02/07 14:05:33;;;;;;;9.10;2.53;;;;;;;;;;5044810;28;20038;-73
2022/02/07 14:08:02;;;;;;;6.25;2.42;;;;;;;;;;5040207;28;20044;-75
2022/02/07 14:10:36;;;;;;;11.15;2.55;;;;;;;;;;5035103;28;20065;-74
2022/02/07 14:13:07;;;;;;;18.83;2.38;;;;;;;;;;5037200;28;20496;-74
2022/02/07 14:15:36;;;;;;;11.75;2.58;;;;;;;;;;5029714;28;20068;-72
2022/02/07 14:18:08;;;;;;;10.40;2.03;;;;;;;;;;5047402;28;20037;-71
2022/02/07 14:20:37;;;;;;;12.95;2.28;;;;;;;;;;5035339;28;20042;-72
2022/02/07 14:23:10;;;;;;;6.50;2.40;;;;;;;;;;5035473;28;20128;-73
2022/02/07 14:25:39;;;;;;;6.70;2.53;;;;;;;;;;5016758;28;20081;-73
2022/02/07 14:28:06;;;;;;;4.53;1.90;;;;;;;;;;5035356;28;20524;-72
2022/02/07 14:30:34;;;;;;;10.20;2.33;;;;;;;;;;5024298;28;20084;-72
2022/02/07 14:33:03;;;;;;;9.43;2.70;;;;;;;;;;5045009;28;20548;-72
2022/02/07 14:35:35;;;;;;;8.45;2.30;;;;;;;;;;5042582;28;20116;-77
2022/02/07 14:38:04;;;;;;;11.40;2.28;;;;;;;;;;5016603;28;20060;-74
2022/02/07 14:40:33;;;;;;;16.25;2.85;;;;;;;;;;5017299;28;20065;-74
2022/02/07 14:43:07;;;;;;;8.82;2.25;;;;;;;;;;5033914;28;20049;-76
2022/02/07 14:45:43;;;;;;;15.80;2.80;;;;;;;;;;5033209;28;20480;-74
2022/02/07 14:48:11;;;;;;;11.32;2.60;;;;;;;;;;5032055;28;20033;-74
2022/02/07 14:50:41;;;;;;;11.02;2.45;;;;;;;;;;5036990;28;20041;-76
2022/02/07 14:53:13;;;;;;;10.50;2.65;;;;;;;;;;5025699;28;20414;-76
2022/02/07 14:55:41;;;;;;;11.55;2.85;;;;;;;;;;5025024;28;20116;-76
2022/02/07 14:58:09;;;;;;;10.00;2.63;;;;;;;;;;5011729;28;20045;-76
2022/02/07 15:00:38;;;;;;;11.25;2.47;;;;;;;;;;5042970;28;20059;-75
2022/02/07 15:03:10;;;;;;;9.68;2.85;;;;;;;;;;5042795;28;20053;-76
2022/02/07 15:05:38;;;;;;;8.57;2.47;;;;;;;;;;5024720;28;20191;-71
2022/02/07 15:08:06;;;;;;;23.17;3.00;;;;;;;;;;5043750;28;20036;-72
2022/02/07 15:10:36;;;;;;;9.25;2.85;;;;;;;;;;5044113;28;20385;-73
2022/02/07 15:13:05;;;;;;;13.82;2.83;;;;;;;;;;5026144;28;20109;-73
2022/02/07 15:15:36;;;;;;;13.20;2.97;;;;;;;;;;5041460;28;20033;-72
2022/02/07 15:18:07;;;;;;;12.68;3.22;;;;;;;;;;5024564;28;20045;-76
2022/02/07 15:20:36;;;;;;;11.55;2.80;;;;;;;;;;5026620;28;20048;-74
2022/02/07 15:23:06;;;;;;;10.75;3.10;;;;;;;;;;5053080;28;20084;-74
2022/02/07 15:25:38;;;;;;;11.48;2.75;;;;;;;;;;5047142;28;20041;-77
2022/02/07 15:28:07;;;;;;;7.35;2.42;;;;;;;;;;5032083;28;20069;-77
2022/02/07 15:30:40;;;;;;;8.90;2.58;;;;;;;;;;5032852;28;20033;-73
2022/02/07 15:33:09;;;;;;;14.30;2.85;;;;;;;;;;5034599;28;20112;-73
2022/02/07 15:35:37;;;;;;;8.23;2.72;;;;;;;;;;5035653;28;20043;-72
2022/02/07 15:38:07;;;;;;;10.35;3.10;;;;;;;;;;5022297;28;20051;-74
2022/02/07 15:40:39;;;;;;;8.32;2.03;;;;;;;;;;5048420;28;20189;-74
2022/02/07 15:43:07;;;;;;;7.00;2.25;;;;;;;;;;5052325;28;20045;-70
2022/02/07 15:45:34;;;;;;;9.02;2.40;;;;;;;;;;5052300;28;20463;-69
2022/02/07 15:48:02;;;;;;;10.25;2.30;;;;;;;;;;5051727;28;20075;-78
2022/02/07 15:50:31;;;;;;;13.55;2.50;;;;;;;;;;5050649;28;20040;-78
2022/02/07 15:53:03;;;;;;;16.83;2.78;;;;;;;;;;5031554;28;20029;-77
2022/02/07 15:55:32;;;;;;;10.35;2.80;;;;;;;;;;5051574;28;20045;-68
2022/02/07 15:58:03;;;;;;;17.20;2.75;;;;;;;;;;5034176;28;20040;-71
2022/02/07 16:00:31;;;;;;;7.28;2.72;;;;;;;;;;5051538;28;20049;-77
2022/02/07 16:02:59;;;;;;;10.23;2.63;;;;;;;;;;5052329;28;20049;-71
2022/02/07 16:05:27;;;;;;;13.98;2.50;;;;;;;;;;5034904;28;20128;-72
2022/02/07 16:07:58;;;;;;;17.38;2.58;;;;;;;;;;5051781;28;20640;-69
2022/02/07 16:10:27;;;;;;;12.15;2.38;;;;;;;;;;5032205;28;20041;-69
2022/02/07 16:13:33;;;;;;;10.43;2.63;;;;;;;;;;5051653;28;20029;-71
2022/02/07 16:15:50;;;;;;;15.63;2.83;;;;;;;;;;5049697;28;20152;-71
2022/02/07 16:18:21;;;;;;;12.52;2.70;;;;;;;;;;5034898;28;20112;-69
2022/02/07 16:20:49;;;;;;;15.50;2.67;;;;;;;;;;5034228;28;20071;-78
2022/02/07 16:23:18;;;;;;;11.98;1.70;;;;;;;;;;5017930;28;20389;-72
2022/02/07 16:25:47;;;;;;;12.63;2.25;;;;;;;;;;5033822;28;20128;-73
2022/02/07 16:28:15;;;;;;;12.45;2.70;;;;;;;;;;5052066;28;20080;-71
2022/02/07 16:30:45;;;;;;;12.20;2.10;;;;;;;;;;5052455;28;20033;-69
2022/02/07 16:33:16;;;;;;;7.20;1.67;;;;;;;;;;5052130;28;20044;-71
2022/02/07 16:35:44;;;;;;;8.77;2.50;;;;;;;;;;5051483;28;20111;-73
2022/02/07 16:38:13;;;;;;;10.57;2.97;;;;;;;;;;5033556;28;20041;-77
2022/02/07 16:40:42;;;;;;;15.07;2.30;;;;;;;;;;5033870;28;20041;-71
2022/02/07 16:43:13;;;;;;;9.18;2.20;;;;;;;;;;5052191;28;20076;-73
2022/02/07 16:46:02;;;;;;;10.95;2.97;;;;;;;;;;5028320;28;20064;-77
2022/02/07 16:48:34;;;;;;;6.70;1.73;;;;;;;;;;5014851;28;20037;-71
2022/02/07 16:51:02;;;;;;;9.07;2.15;;;;;;;;;;5028223;28;20123;-71
2022/02/07 16:53:29;;;;;;;14.93;1.92;;;;;;;;;;5030902;28;20037;-70
2022/02/07 16:55:57;;;;;;;7.40;1.85;;;;;;;;;;5014943;28;20033;-76
2022/02/07 16:58:25;;;;;;;8.57;1.75;;;;;;;;;;5021688;28;20393;-72
2022/02/07 17:00:54;;;;;;;12.07;3.10;;;;;;;;;;5040791;28;20045;-76
2022/02/07 17:03:21;;;;;;;8.25;2.00;;;;;;;;;;5034185;28;20084;-72
2022/02/07 17:05:49;;;;;;;11.40;2.55;;;;;;;;;;5021514;28;20469;-75
2022/02/07 17:08:17;;;;;;;11.45;2.10;;;;;;;;;;5031643;28;20042;-72
2022/02/07 17:10:47;;;;;;;7.40;2.72;;;;;;;;;;5047736;28;20030;-72
2022/02/07 17:13:15;;;;;;;9.15;2.10;;;;;;;;;;5048977;28;20040;-72
2022/02/07 17:15:43;;;;;;;13.10;3.10;;;;;;;;;;5048662;28;20396;-71
2022/02/07 17:18:14;;;;;;;8.82;2.72;;;;;;;;;;5043258;28;20477;-72
2022/02/07 17:20:43;;;;;;;8.52;1.80;;;;;;;;;;5013047;28;20052;-76
2022/02/07 17:23:10;;;;;;;9.80;2.58;;;;;;;;;;5034394;28;20064;-68
2022/02/07 17:25:40;;;;;;;9.82;2.42;;;;;;;;;;5024935;28;20029;-69
2022/02/07 17:28:07;;;;;;;10.32;3.45;;;;;;;;;;5042521;28;20041;-71
2022/02/07 17:30:35;;;;;;;9.52;2.38;;;;;;;;;;5046530;28;20044;-69
2022/02/07 17:33:03;;;;;;;14.65;6.18;;;;;;;;;;5045302;28;20040;-72
2022/02/07 17:35:32;;;;;;;8.05;2.30;;;;;;;;;;5019475;28;20046;-68
2022/02/07 17:38:00;;;;;;;6.47;2.30;;;;;;;;;;5022475;28;20041;-75
2022/02/07 17:40:31;;;;;;;8.32;1.77;;;;;;;;;;5041345;28;20041;-79
2022/02/07 17:43:00;;;;;;;7.72;1.80;;;;;;;;;;5040692;28;20044;-71
2022/02/07 17:45:31;;;;;;;8.35;2.30;;;;;;;;;;5001538;28;20046;-69
2022/02/07 17:47:59;;;;;;;6.47;1.90;;;;;;;;;;5042033;28;20046;-72